createdAt,value
2023-06-10T00:02:06.029Z,69.00
2023-06-10T00:07:11.701Z,68.80
2023-06-10T00:12:16.271Z,69.90
2023-06-10T00:17:21.008Z,69.90
2023-06-10T00:22:26.065Z,70.40
2023-06-10T00:27:32.696Z,70.70
2023-06-10T00:32:39.238Z,71.30
2023-06-10T00:37:42.616Z,71.20
2023-06-10T00:42:45.724Z,72.00
2023-06-10T00:47:50.990Z,72.00
2023-06-10T00:52:55.916Z,72.70
2023-06-10T00:57:59.516Z,72.70
2023-06-10T01:03:09.302Z,73.40
2023-06-10T01:08:20.693Z,73.70
2023-06-10T01:13:25.341Z,74.50
2023-06-10T01:18:33.714Z,74.90
2023-06-10T01:23:38.201Z,75.40
2023-06-10T01:28:46.504Z,75.80
2023-06-10T01:33:51.740Z,76.30
2023-06-10T01:38:56.365Z,76.90
2023-06-10T01:43:59.513Z,77.40
2023-06-10T01:49:02.603Z,78.00
2023-06-10T01:54:07.632Z,78.60
2023-06-10T01:59:11.017Z,79.10
2023-06-10T02:04:14.769Z,79.50
2023-06-10T02:09:20.353Z,79.90
2023-06-10T02:14:23.794Z,80.40
2023-06-10T02:19:28.260Z,81.10
2023-06-10T02:24:33.038Z,82.10
2023-06-10T02:29:36.717Z,83.00
2023-06-10T02:34:40.781Z,83.90
2023-06-10T02:39:46.098Z,85.00
2023-06-10T02:44:49.677Z,86.00
2023-06-10T02:50:01.551Z,87.20
2023-06-10T02:55:09.303Z,88.70
2023-06-10T03:00:21.742Z,90.00
2023-06-10T03:05:26.595Z,90.60
2023-06-10T03:10:34.378Z,91.10
2023-06-10T03:15:39.153Z,91.70
2023-06-10T03:20:46.198Z,92.40
2023-06-10T03:25:51.476Z,93.00
2023-06-10T03:30:56.870Z,93.50
2023-06-10T03:36:02.902Z,94.00
2023-06-10T03:41:07.698Z,94.50
2023-06-10T03:46:12.107Z,95.00
2023-06-10T03:51:16.609Z,95.50
2023-06-10T03:56:22.087Z,96.10
2023-06-10T04:01:26.310Z,96.50
2023-06-10T04:06:30.664Z,97.00
2023-06-10T04:11:35.582Z,97.30
2023-06-10T04:16:39.977Z,97.60
2023-06-10T04:21:43.504Z,97.90
2023-06-10T04:26:48.233Z,98.10
2023-06-10T04:31:52.020Z,98.40
2023-06-10T04:36:55.652Z,98.60
2023-06-10T04:42:00.592Z,98.90
2023-06-10T04:47:04.201Z,99.10
2023-06-10T04:52:07.971Z,99.30
2023-06-10T04:57:16.666Z,99.40
2023-06-10T05:02:20.209Z,99.90
2023-06-10T05:07:23.683Z,98.40
2023-06-10T05:12:28.658Z,96.00
2023-06-10T05:17:32.119Z,92.70
2023-06-10T05:22:35.836Z,89.10
2023-06-10T05:27:41.778Z,85.10
2023-06-10T05:32:45.169Z,89.00
2023-06-10T05:37:48.763Z,91.30
2023-06-10T05:42:53.516Z,92.50
2023-06-10T05:47:56.887Z,93.50
2023-06-10T05:53:00.390Z,94.50
2023-06-10T05:58:05.205Z,95.20
2023-06-10T06:03:09.272Z,95.70
2023-06-10T06:08:12.745Z,95.80
2023-06-10T06:13:17.661Z,96.00
2023-06-10T06:18:21.004Z,96.10
2023-06-10T06:23:24.595Z,96.20
2023-06-10T06:28:30.622Z,96.20
2023-06-10T06:33:34.216Z,96.20
2023-06-10T06:38:38.745Z,96.30
2023-06-10T06:43:44.827Z,96.40
2023-06-10T06:49:06.871Z,96.40
2023-06-10T06:54:10.313Z,96.40
2023-06-10T06:59:15.435Z,96.20
2023-06-10T07:04:21.150Z,95.90
2023-06-10T07:09:24.740Z,95.90
2023-06-10T07:14:29.779Z,95.70
2023-06-10T07:19:33.219Z,95.40
2023-06-10T07:24:36.759Z,95.20
2023-06-10T07:29:41.568Z,94.80
2023-06-10T07:34:45.111Z,94.30
2023-06-10T07:39:48.744Z,94.00
2023-06-10T07:44:53.831Z,93.50
2023-06-10T07:49:57.381Z,92.80
2023-06-10T07:55:01.031Z,92.00
2023-06-10T08:00:06.388Z,91.40
2023-06-10T08:05:16.130Z,90.90
2023-06-10T08:10:19.691Z,90.30
2023-06-10T08:15:24.646Z,88.90
2023-06-10T08:20:28.114Z,88.10
2023-06-10T08:25:31.899Z,87.80
2023-06-10T08:30:36.695Z,87.00
2023-06-10T08:35:40.255Z,85.80
2023-06-10T08:40:43.722Z,84.20
2023-06-10T08:45:51.241Z,83.20
2023-06-10T08:50:55.315Z,83.40
2023-06-10T08:56:01.262Z,82.80
2023-06-10T09:01:06.060Z,81.20
2023-06-10T09:06:09.826Z,81.20
2023-06-10T09:11:13.140Z,80.20
2023-06-10T09:16:18.413Z,79.80
2023-06-10T09:21:22.099Z,78.40
2023-06-10T09:26:30.332Z,77.20
2023-06-10T09:31:38.458Z,76.00
2023-06-10T09:36:42.489Z,74.90
2023-06-10T09:41:46.688Z,74.30
2023-06-10T09:46:52.313Z,74.30
2023-06-10T09:51:56.534Z,72.60
2023-06-10T09:57:01.449Z,71.80
2023-06-10T10:02:09.015Z,71.20
2023-06-10T10:07:15.191Z,70.60
2023-06-10T10:12:18.651Z,69.80
2023-06-10T10:17:25.203Z,69.10
2023-06-10T10:22:30.322Z,68.60
2023-06-10T10:27:36.142Z,67.40
2023-06-10T10:32:44.373Z,66.90
2023-06-10T10:37:48.046Z,66.30
2023-06-10T10:42:51.881Z,65.70
2023-06-10T10:47:58.867Z,65.20
2023-06-10T10:53:04.949Z,64.60
2023-06-10T10:58:09.230Z,64.50
2023-06-10T11:03:17.747Z,64.10
2023-06-10T11:08:36.249Z,66.20
2023-06-10T11:13:40.425Z,63.30
2023-06-10T11:18:45.168Z,62.60
2023-06-10T11:23:48.707Z,61.60
2023-06-10T11:29:07.022Z,61.40
2023-06-10T11:34:12.030Z,60.30
2023-06-10T11:39:15.574Z,59.60
2023-06-10T11:44:20.237Z,59.00
2023-06-10T11:49:26.700Z,58.70
2023-06-10T11:54:29.840Z,58.90
2023-06-10T11:59:32.971Z,58.80
2023-06-10T12:04:38.358Z,58.00
2023-06-10T12:09:41.362Z,57.20
2023-06-10T12:14:55.330Z,56.90
2023-06-10T12:20:00.803Z,56.90
2023-06-10T12:25:05.985Z,57.60
2023-06-10T12:30:09.390Z,58.00
2023-06-10T12:35:15.067Z,56.80
2023-06-10T12:40:18.569Z,55.80
2023-06-10T12:45:29.830Z,54.90
2023-06-10T12:50:34.333Z,53.20
2023-06-10T12:55:37.785Z,53.40
2023-06-10T13:00:41.707Z,52.80
2023-06-10T13:05:46.085Z,69.80
2023-06-10T13:10:50.555Z,94.40
2023-06-10T13:15:53.905Z,99.90
2023-06-10T13:20:58.874Z,99.90
2023-06-10T13:26:03.962Z,99.90
2023-06-10T13:31:07.499Z,99.90
2023-06-10T13:36:12.308Z,99.90
2023-06-10T13:41:15.741Z,99.90
2023-06-10T13:46:19.142Z,99.90
2023-06-10T13:51:23.971Z,99.90
2023-06-10T13:56:27.371Z,99.90
2023-06-10T14:01:30.968Z,99.90
2023-06-10T14:06:35.860Z,99.90
2023-06-10T14:11:39.211Z,99.90
2023-06-10T14:16:43.544Z,90.70
2023-06-10T14:21:48.596Z,80.80
2023-06-10T14:26:51.997Z,72.90
2023-06-10T14:31:55.337Z,67.30
2023-06-10T14:37:01.207Z,64.40
2023-06-10T14:42:04.579Z,62.00
2023-06-10T14:47:08.038Z,59.90
2023-06-10T14:52:12.736Z,57.80
2023-06-10T14:57:16.230Z,56.30
2023-06-10T15:02:19.691Z,57.80
2023-06-10T15:07:26.435Z,58.90
2023-06-10T15:12:30.532Z,59.70
2023-06-10T15:17:34.981Z,61.00
2023-06-10T15:22:39.937Z,62.20
2023-06-10T15:27:43.452Z,63.20
2023-06-10T15:32:46.847Z,64.00
2023-06-10T15:37:51.618Z,63.90
2023-06-10T15:42:54.688Z,63.40
2023-06-10T15:47:57.808Z,62.20
2023-06-10T15:53:02.547Z,61.70
2023-06-10T15:58:06.374Z,61.80
2023-06-10T16:03:09.894Z,61.10
2023-06-10T16:08:14.815Z,60.20
2023-06-10T16:13:18.089Z,59.80
2023-06-10T16:18:21.596Z,58.80
2023-06-10T16:23:26.900Z,58.40
2023-06-10T16:28:30.166Z,58.10
2023-06-10T16:33:33.521Z,57.20
2023-06-10T16:38:38.345Z,56.50
2023-06-10T16:43:41.588Z,56.10
2023-06-10T16:48:45.874Z,55.60
2023-06-10T16:53:51.960Z,55.40
2023-06-10T16:58:55.521Z,55.30
2023-06-10T17:03:58.650Z,56.10
2023-06-10T17:09:03.443Z,56.50
2023-06-10T17:14:06.824Z,56.90
2023-06-10T17:19:10.290Z,56.50
2023-06-10T17:24:15.054Z,56.50
2023-06-10T17:29:18.489Z,56.20
2023-06-10T17:34:21.877Z,56.80
2023-06-10T17:39:26.661Z,57.40
2023-06-10T17:44:29.936Z,57.70
2023-06-10T17:49:33.455Z,58.20
2023-06-10T17:54:37.926Z,58.80
2023-06-10T17:59:41.714Z,59.20
2023-06-10T18:04:44.830Z,59.70
2023-06-10T18:09:49.289Z,59.90
2023-06-10T18:14:52.415Z,60.30
2023-06-10T18:19:55.453Z,60.60
2023-06-10T18:25:00.547Z,60.90
2023-06-10T18:30:03.708Z,61.60
2023-06-10T18:35:07.221Z,62.10
2023-06-10T18:40:12.274Z,62.20
2023-06-10T18:45:15.273Z,62.20
2023-06-10T18:50:18.567Z,62.70
2023-06-10T18:55:23.506Z,63.40
2023-06-10T19:00:27.018Z,64.00
2023-06-10T19:05:30.537Z,64.70
2023-06-10T19:10:35.504Z,65.20
2023-06-10T19:15:39.375Z,65.80
2023-06-10T19:20:44.293Z,66.40
2023-06-10T19:25:49.248Z,66.70
2023-06-10T19:30:52.775Z,66.60
2023-06-10T19:35:57.027Z,66.70
2023-06-10T19:41:02.677Z,67.10
2023-06-10T19:46:06.166Z,67.80
2023-06-10T19:51:09.345Z,68.60
2023-06-10T19:56:19.747Z,69.10
2023-06-10T20:01:23.184Z,69.60
2023-06-10T20:06:26.199Z,70.10
2023-06-10T20:11:30.742Z,70.60
2023-06-10T20:16:33.735Z,70.90
2023-06-10T20:21:36.767Z,71.40
2023-06-10T20:26:41.165Z,71.50
2023-06-10T20:31:46.851Z,71.60
2023-06-10T20:36:50.431Z,71.50
2023-06-10T20:41:55.161Z,72.00
2023-06-10T20:46:58.599Z,72.40
2023-06-10T20:52:02.086Z,72.60
2023-06-10T20:57:07.739Z,72.10
2023-06-10T21:02:11.294Z,72.50
2023-06-10T21:07:14.758Z,72.40
2023-06-10T21:12:20.532Z,72.30
2023-06-10T21:17:23.740Z,71.90
2023-06-10T21:22:27.233Z,71.80
2023-06-10T21:27:32.075Z,71.60
2023-06-10T21:32:35.537Z,71.70
2023-06-10T21:37:39.113Z,71.60
2023-06-10T21:42:43.817Z,71.30
2023-06-10T21:47:47.556Z,71.20
2023-06-10T21:52:51.140Z,71.40
2023-06-10T21:57:56.456Z,71.70
2023-06-10T22:02:59.977Z,72.10
2023-06-10T22:08:04.712Z,72.20
2023-06-10T22:13:09.898Z,72.10
2023-06-10T22:18:13.467Z,71.90
2023-06-10T22:23:20.455Z,72.10
2023-06-10T22:28:25.302Z,72.30
2023-06-10T22:33:28.733Z,72.30
2023-06-10T22:38:32.288Z,72.30
2023-06-10T22:43:37.140Z,72.30
2023-06-10T22:48:40.620Z,72.40
2023-06-10T22:53:44.142Z,72.40
2023-06-10T22:58:48.960Z,72.00
2023-06-10T23:03:52.199Z,72.40
2023-06-10T23:08:55.669Z,72.20
2023-06-10T23:14:00.566Z,72.10
2023-06-10T23:19:04.080Z,72.10
2023-06-10T23:24:07.667Z,71.80
2023-06-10T23:29:12.583Z,71.60
2023-06-10T23:34:16.123Z,71.30
2023-06-10T23:39:19.584Z,71.20
2023-06-10T23:44:24.306Z,70.90
2023-06-10T23:49:27.765Z,70.90
2023-06-10T23:54:31.363Z,70.90
2023-06-10T23:59:36.152Z,71.10
